sensor_id;sensor_type;location;lat;lon;timestamp;temperature;humidity
30063;DHT22;16889;67.864;24.990;2022-09-09T00:03:47;3.20;99.90
30063;DHT22;16889;67.864;24.990;2022-09-09T00:08:46;3.30;99.90
30063;DHT22;16889;67.864;24.990;2022-09-09T00:13:42;3.30;99.90
30063;DHT22;16889;67.864;24.990;2022-09-09T00:18:50;3.30;99.90
30063;DHT22;16889;67.864;24.990;2022-09-09T00:23:40;3.30;99.90
30063;DHT22;16889;67.864;24.990;2022-09-09T00:28:32;3.20;99.90
30063;DHT22;16889;67.864;24.990;2022-09-09T00:33:22;3.10;99.90
30063;DHT22;16889;67.864;24.990;2022-09-09T00:38:39;3.20;99.90
30063;DHT22;16889;67.864;24.990;2022-09-09T00:43:31;3.30;99.90
30063;DHT22;16889;67.864;24.990;2022-09-09T00:48:18;3.30;99.90
30063;DHT22;16889;67.864;24.990;2022-09-09T00:53:27;3.30;99.90
30063;DHT22;16889;67.864;24.990;2022-09-09T00:58:16;3.30;99.90
30063;DHT22;16889;67.864;24.990;2022-09-09T01:07:54;3.50;99.90
30063;DHT22;16889;67.864;24.990;2022-09-09T01:12:46;3.60;99.90
30063;DHT22;16889;67.864;24.990;2022-09-09T01:27:18;3.80;99.90
30063;DHT22;16889;67.864;24.990;2022-09-09T01:32:37;3.80;99.90
30063;DHT22;16889;67.864;24.990;2022-09-09T01:37:24;3.80;99.90
30063;DHT22;16889;67.864;24.990;2022-09-09T01:42:14;3.90;99.90
30063;DHT22;16889;67.864;24.990;2022-09-09T01:47:00;3.90;99.90
30063;DHT22;16889;67.864;24.990;2022-09-09T01:51:51;3.90;99.90
30063;DHT22;16889;67.864;24.990;2022-09-09T01:56:55;4.00;99.90
30063;DHT22;16889;67.864;24.990;2022-09-09T02:02:08;4.10;99.90
30063;DHT22;16889;67.864;24.990;2022-09-09T02:06:56;3.90;99.90
30063;DHT22;16889;67.864;24.990;2022-09-09T02:11:44;4.00;99.90
30063;DHT22;16889;67.864;24.990;2022-09-09T02:16:40;4.10;99.90
30063;DHT22;16889;67.864;24.990;2022-09-09T02:21:30;4.10;99.90
30063;DHT22;16889;67.864;24.990;2022-09-09T02:26:18;4.20;99.90
30063;DHT22;16889;67.864;24.990;2022-09-09T02:31:07;4.20;99.90
30063;DHT22;16889;67.864;24.990;2022-09-09T02:35:54;4.20;99.90
30063;DHT22;16889;67.864;24.990;2022-09-09T02:40:42;4.20;99.90
30063;DHT22;16889;67.864;24.990;2022-09-09T02:45:35;4.20;99.90
30063;DHT22;16889;67.864;24.990;2022-09-09T02:50:35;4.30;99.90
30063;DHT22;16889;67.864;24.990;2022-09-09T02:55:37;4.40;99.90
30063;DHT22;16889;67.864;24.990;2022-09-09T03:00:26;4.40;99.90
30063;DHT22;16889;67.864;24.990;2022-09-09T03:05:13;4.30;99.90
30063;DHT22;16889;67.864;24.990;2022-09-09T03:09:59;4.30;99.90
30063;DHT22;16889;67.864;24.990;2022-09-09T03:14:45;4.20;99.90
30063;DHT22;16889;67.864;24.990;2022-09-09T03:19:32;4.10;99.90
30063;DHT22;16889;67.864;24.990;2022-09-09T03:24:21;4.00;99.90
30063;DHT22;16889;67.864;24.990;2022-09-09T03:29:08;3.90;99.90
30063;DHT22;16889;67.864;24.990;2022-09-09T03:33:54;3.80;99.90
30063;DHT22;16889;67.864;24.990;2022-09-09T03:38:40;3.60;99.90
30063;DHT22;16889;67.864;24.990;2022-09-09T03:43:27;3.60;99.90
30063;DHT22;16889;67.864;24.990;2022-09-09T03:48:15;3.50;99.90
30063;DHT22;16889;67.864;24.990;2022-09-09T03:53:01;3.50;99.90
30063;DHT22;16889;67.864;24.990;2022-09-09T03:57:50;3.40;99.90
30063;DHT22;16889;67.864;24.990;2022-09-09T04:02:36;3.40;99.90
30063;DHT22;16889;67.864;24.990;2022-09-09T04:07:22;3.40;99.90
30063;DHT22;16889;67.864;24.990;2022-09-09T04:12:08;3.30;99.90
30063;DHT22;16889;67.864;24.990;2022-09-09T04:16:54;3.40;99.90
30063;DHT22;16889;67.864;24.990;2022-09-09T04:21:41;3.40;99.90
30063;DHT22;16889;67.864;24.990;2022-09-09T04:26:28;3.50;99.90
30063;DHT22;16889;67.864;24.990;2022-09-09T04:31:19;3.50;99.90
30063;DHT22;16889;67.864;24.990;2022-09-09T04:36:06;3.60;99.90
30063;DHT22;16889;67.864;24.990;2022-09-09T04:40:52;3.70;99.90
30063;DHT22;16889;67.864;24.990;2022-09-09T04:45:39;3.70;99.90
30063;DHT22;16889;67.864;24.990;2022-09-09T04:50:26;3.80;99.90
30063;DHT22;16889;67.864;24.990;2022-09-09T04:55:14;4.10;99.90
30063;DHT22;16889;67.864;24.990;2022-09-09T05:00:02;4.30;99.90
30063;DHT22;16889;67.864;24.990;2022-09-09T05:04:48;4.40;99.90
30063;DHT22;16889;67.864;24.990;2022-09-09T05:09:35;4.50;99.90
30063;DHT22;16889;67.864;24.990;2022-09-09T05:14:21;4.60;99.90
30063;DHT22;16889;67.864;24.990;2022-09-09T05:19:08;4.80;99.90
30063;DHT22;16889;67.864;24.990;2022-09-09T05:23:54;4.90;99.90
30063;DHT22;16889;67.864;24.990;2022-09-09T05:28:40;5.00;99.90
30063;DHT22;16889;67.864;24.990;2022-09-09T05:33:27;5.10;99.90
30063;DHT22;16889;67.864;24.990;2022-09-09T05:38:13;5.40;99.90
30063;DHT22;16889;67.864;24.990;2022-09-09T05:43:00;6.60;99.90
30063;DHT22;16889;67.864;24.990;2022-09-09T05:47:51;8.40;99.90
30063;DHT22;16889;67.864;24.990;2022-09-09T05:52:40;9.30;99.90
30063;DHT22;16889;67.864;24.990;2022-09-09T05:57:26;9.60;99.90
30063;DHT22;16889;67.864;24.990;2022-09-09T06:02:12;8.90;99.90
30063;DHT22;16889;67.864;24.990;2022-09-09T06:06:59;8.50;99.90
30063;DHT22;16889;67.864;24.990;2022-09-09T06:11:45;8.00;99.90
30063;DHT22;16889;67.864;24.990;2022-09-09T06:16:32;7.80;99.90
30063;DHT22;16889;67.864;24.990;2022-09-09T06:21:25;8.20;99.90
30063;DHT22;16889;67.864;24.990;2022-09-09T06:26:17;8.30;99.90
30063;DHT22;16889;67.864;24.990;2022-09-09T06:31:09;8.30;99.90
30063;DHT22;16889;67.864;24.990;2022-09-09T06:35:59;8.20;99.90
30063;DHT22;16889;67.864;24.990;2022-09-09T06:40:52;8.30;99.90
30063;DHT22;16889;67.864;24.990;2022-09-09T06:45:40;8.20;99.90
30063;DHT22;16889;67.864;24.990;2022-09-09T06:50:26;8.40;99.90
30063;DHT22;16889;67.864;24.990;2022-09-09T06:55:12;8.70;99.90
30063;DHT22;16889;67.864;24.990;2022-09-09T06:59:58;11.20;99.90
30063;DHT22;16889;67.864;24.990;2022-09-09T07:04:44;14.60;99.90
30063;DHT22;16889;67.864;24.990;2022-09-09T07:09:30;14.80;99.90
30063;DHT22;16889;67.864;24.990;2022-09-09T07:14:17;13.50;99.90
30063;DHT22;16889;67.864;24.990;2022-09-09T07:19:04;12.40;99.90
30063;DHT22;16889;67.864;24.990;2022-09-09T07:23:50;12.10;99.90
30063;DHT22;16889;67.864;24.990;2022-09-09T07:28:37;12.90;99.90
30063;DHT22;16889;67.864;24.990;2022-09-09T07:33:25;14.90;99.90
30063;DHT22;16889;67.864;24.990;2022-09-09T07:38:11;16.90;99.90
30063;DHT22;16889;67.864;24.990;2022-09-09T07:42:57;17.70;97.10
30063;DHT22;16889;67.864;24.990;2022-09-09T07:47:43;16.40;99.10
30063;DHT22;16889;67.864;24.990;2022-09-09T07:52:29;14.80;99.90
30063;DHT22;16889;67.864;24.990;2022-09-09T07:57:15;14.00;99.90
30063;DHT22;16889;67.864;24.990;2022-09-09T08:02:02;13.30;99.90
30063;DHT22;16889;67.864;24.990;2022-09-09T08:06:51;13.40;99.90
30063;DHT22;16889;67.864;24.990;2022-09-09T08:11:39;14.30;99.90
30063;DHT22;16889;67.864;24.990;2022-09-09T08:16:28;15.10;99.90
30063;DHT22;16889;67.864;24.990;2022-09-09T08:21:21;17.10;99.90
30063;DHT22;16889;67.864;24.990;2022-09-09T08:26:11;18.00;98.10
30063;DHT22;16889;67.864;24.990;2022-09-09T08:31:38;16.40;99.10
30063;DHT22;16889;67.864;24.990;2022-09-09T08:36:20;14.70;99.90
30063;DHT22;16889;67.864;24.990;2022-09-09T08:51:37;13.10;99.90
30063;DHT22;16889;67.864;24.990;2022-09-09T08:56:25;13.10;99.90
30063;DHT22;16889;67.864;24.990;2022-09-09T09:11:21;13.30;99.90
30063;DHT22;16889;67.864;24.990;2022-09-09T09:16:29;13.50;99.90
30063;DHT22;16889;67.864;24.990;2022-09-09T09:21:39;14.00;99.90
30063;DHT22;16889;67.864;24.990;2022-09-09T09:26:36;14.60;99.90
30063;DHT22;16889;67.864;24.990;2022-09-09T09:31:22;14.60;99.90
30063;DHT22;16889;67.864;24.990;2022-09-09T09:36:10;14.60;99.90
30063;DHT22;16889;67.864;24.990;2022-09-09T09:40:59;14.70;99.90
30063;DHT22;16889;67.864;24.990;2022-09-09T09:45:45;14.70;99.90
30063;DHT22;16889;67.864;24.990;2022-09-09T09:50:32;15.40;99.90
30063;DHT22;16889;67.864;24.990;2022-09-09T09:55:18;17.40;99.60
30063;DHT22;16889;67.864;24.990;2022-09-09T10:00:19;18.80;95.60
30063;DHT22;16889;67.864;24.990;2022-09-09T10:09:58;19.00;91.70
30063;DHT22;16889;67.864;24.990;2022-09-09T10:26:08;17.50;92.10
30063;DHT22;16889;67.864;24.990;2022-09-09T10:36:17;17.30;93.70
30063;DHT22;16889;67.864;24.990;2022-09-09T10:56:29;18.10;90.40
30063;DHT22;16889;67.864;24.990;2022-09-09T11:01:21;17.00;92.80
30063;DHT22;16889;67.864;24.990;2022-09-09T11:06:19;16.20;92.60
30063;DHT22;16889;67.864;24.990;2022-09-09T11:11:29;15.60;93.20
30063;DHT22;16889;67.864;24.990;2022-09-09T11:21:45;14.70;95.80
30063;DHT22;16889;67.864;24.990;2022-09-09T11:26:36;14.90;96.50
30063;DHT22;16889;67.864;24.990;2022-09-09T11:36:56;15.00;95.60
30063;DHT22;16889;67.864;24.990;2022-09-09T11:41:44;14.70;96.70
30063;DHT22;16889;67.864;24.990;2022-09-09T11:46:36;14.50;96.40
30063;DHT22;16889;67.864;24.990;2022-09-09T11:51:32;14.50;97.80
30063;DHT22;16889;67.864;24.990;2022-09-09T11:56:43;15.00;97.90
30063;DHT22;16889;67.864;24.990;2022-09-09T12:01:35;15.30;97.90
30063;DHT22;16889;67.864;24.990;2022-09-09T12:06:31;15.30;97.00
30063;DHT22;16889;67.864;24.990;2022-09-09T12:11:29;15.30;96.30
30063;DHT22;16889;67.864;24.990;2022-09-09T12:16:34;15.10;96.90
30063;DHT22;16889;67.864;24.990;2022-09-09T12:21:27;15.30;96.00
30063;DHT22;16889;67.864;24.990;2022-09-09T12:26:47;15.50;96.90
30063;DHT22;16889;67.864;24.990;2022-09-09T12:31:44;15.50;96.10
30063;DHT22;16889;67.864;24.990;2022-09-09T12:36:33;15.80;97.50
30063;DHT22;16889;67.864;24.990;2022-09-09T12:41:28;15.80;95.40
30063;DHT22;16889;67.864;24.990;2022-09-09T12:46:46;15.70;96.90
30063;DHT22;16889;67.864;24.990;2022-09-09T12:51:33;15.80;96.00
30063;DHT22;16889;67.864;24.990;2022-09-09T12:56:27;16.00;94.90
30063;DHT22;16889;67.864;24.990;2022-09-09T13:06:13;16.00;95.30
30063;DHT22;16889;67.864;24.990;2022-09-09T13:11:03;15.80;96.10
30063;DHT22;16889;67.864;24.990;2022-09-09T13:15:58;15.50;95.50
30063;DHT22;16889;67.864;24.990;2022-09-09T13:20:49;15.60;96.80
30063;DHT22;16889;67.864;24.990;2022-09-09T13:25:35;15.80;95.90
30063;DHT22;16889;67.864;24.990;2022-09-09T13:30:32;15.80;95.90
30063;DHT22;16889;67.864;24.990;2022-09-09T13:35:23;15.70;94.70
30063;DHT22;16889;67.864;24.990;2022-09-09T13:40:18;15.50;96.10
30063;DHT22;16889;67.864;24.990;2022-09-09T13:45:05;15.60;96.80
30063;DHT22;16889;67.864;24.990;2022-09-09T13:49:51;15.50;95.70
30063;DHT22;16889;67.864;24.990;2022-09-09T13:54:38;15.40;96.00
30063;DHT22;16889;67.864;24.990;2022-09-09T13:59:24;15.10;96.90
30063;DHT22;16889;67.864;24.990;2022-09-09T14:04:11;15.00;98.20
30063;DHT22;16889;67.864;24.990;2022-09-09T14:08:58;14.60;97.90
30063;DHT22;16889;67.864;24.990;2022-09-09T14:13:44;14.60;98.50
30063;DHT22;16889;67.864;24.990;2022-09-09T14:18:30;14.70;98.00
30063;DHT22;16889;67.864;24.990;2022-09-09T14:23:16;14.70;98.50
30063;DHT22;16889;67.864;24.990;2022-09-09T14:28:02;14.70;99.50
30063;DHT22;16889;67.864;24.990;2022-09-09T14:32:48;14.60;99.00
30063;DHT22;16889;67.864;24.990;2022-09-09T14:37:34;14.40;99.90
30063;DHT22;16889;67.864;24.990;2022-09-09T14:42:20;14.30;99.90
30063;DHT22;16889;67.864;24.990;2022-09-09T14:47:08;14.20;99.90
30063;DHT22;16889;67.864;24.990;2022-09-09T14:51:54;14.20;99.90
30063;DHT22;16889;67.864;24.990;2022-09-09T14:56:40;14.10;99.90
30063;DHT22;16889;67.864;24.990;2022-09-09T15:01:26;14.10;99.90
30063;DHT22;16889;67.864;24.990;2022-09-09T15:06:14;14.00;99.90
30063;DHT22;16889;67.864;24.990;2022-09-09T15:11:01;13.90;99.90
30063;DHT22;16889;67.864;24.990;2022-09-09T15:15:47;13.70;99.90
30063;DHT22;16889;67.864;24.990;2022-09-09T15:20:35;13.60;99.90
30063;DHT22;16889;67.864;24.990;2022-09-09T15:25:22;13.50;99.90
30063;DHT22;16889;67.864;24.990;2022-09-09T15:30:09;13.50;99.90
30063;DHT22;16889;67.864;24.990;2022-09-09T15:34:55;13.40;99.90
30063;DHT22;16889;67.864;24.990;2022-09-09T15:39:41;13.40;99.90
30063;DHT22;16889;67.864;24.990;2022-09-09T15:44:27;13.40;99.90
30063;DHT22;16889;67.864;24.990;2022-09-09T15:49:15;13.40;99.90
30063;DHT22;16889;67.864;24.990;2022-09-09T15:54:04;13.50;99.90
30063;DHT22;16889;67.864;24.990;2022-09-09T15:58:50;13.50;99.90
30063;DHT22;16889;67.864;24.990;2022-09-09T16:03:39;13.40;99.90
30063;DHT22;16889;67.864;24.990;2022-09-09T16:08:38;13.40;99.90
30063;DHT22;16889;67.864;24.990;2022-09-09T16:13:24;13.20;99.90
30063;DHT22;16889;67.864;24.990;2022-09-09T16:18:10;12.80;99.90
30063;DHT22;16889;67.864;24.990;2022-09-09T16:22:56;12.40;99.90
30063;DHT22;16889;67.864;24.990;2022-09-09T16:27:42;12.10;99.90
30063;DHT22;16889;67.864;24.990;2022-09-09T16:32:29;12.00;99.90
30063;DHT22;16889;67.864;24.990;2022-09-09T16:37:15;11.90;99.90
30063;DHT22;16889;67.864;24.990;2022-09-09T16:42:01;11.80;99.90
30063;DHT22;16889;67.864;24.990;2022-09-09T16:46:49;11.80;99.90
30063;DHT22;16889;67.864;24.990;2022-09-09T16:51:42;11.60;99.90
30063;DHT22;16889;67.864;24.990;2022-09-09T16:56:31;11.40;99.90
30063;DHT22;16889;67.864;24.990;2022-09-09T17:01:23;11.20;99.90
30063;DHT22;16889;67.864;24.990;2022-09-09T17:06:14;11.00;99.90
30063;DHT22;16889;67.864;24.990;2022-09-09T17:11:00;10.90;99.90
30063;DHT22;16889;67.864;24.990;2022-09-09T17:15:46;10.70;99.90
30063;DHT22;16889;67.864;24.990;2022-09-09T17:20:36;10.70;99.90
30063;DHT22;16889;67.864;24.990;2022-09-09T17:25:22;10.60;99.90
30063;DHT22;16889;67.864;24.990;2022-09-09T17:30:08;10.60;99.90
30063;DHT22;16889;67.864;24.990;2022-09-09T17:34:54;10.50;99.90
30063;DHT22;16889;67.864;24.990;2022-09-09T17:39:41;10.40;99.90
30063;DHT22;16889;67.864;24.990;2022-09-09T17:44:27;10.30;99.90
30063;DHT22;16889;67.864;24.990;2022-09-09T17:49:15;10.20;99.90
30063;DHT22;16889;67.864;24.990;2022-09-09T17:54:05;10.20;99.90
30063;DHT22;16889;67.864;24.990;2022-09-09T17:58:56;10.00;99.90
30063;DHT22;16889;67.864;24.990;2022-09-09T18:03:44;9.90;99.90
30063;DHT22;16889;67.864;24.990;2022-09-09T18:08:30;9.80;99.90
30063;DHT22;16889;67.864;24.990;2022-09-09T18:13:16;9.60;99.90
30063;DHT22;16889;67.864;24.990;2022-09-09T18:18:02;9.60;99.90
30063;DHT22;16889;67.864;24.990;2022-09-09T18:22:51;9.50;99.90
30063;DHT22;16889;67.864;24.990;2022-09-09T18:27:38;9.40;99.90
30063;DHT22;16889;67.864;24.990;2022-09-09T18:32:23;9.40;99.90
30063;DHT22;16889;67.864;24.990;2022-09-09T18:37:09;9.50;99.90
30063;DHT22;16889;67.864;24.990;2022-09-09T18:41:59;9.50;99.90
30063;DHT22;16889;67.864;24.990;2022-09-09T18:46:47;9.40;99.90
30063;DHT22;16889;67.864;24.990;2022-09-09T18:51:34;9.30;99.90
30063;DHT22;16889;67.864;24.990;2022-09-09T18:56:22;9.10;99.90
30063;DHT22;16889;67.864;24.990;2022-09-09T19:01:10;8.80;99.90
30063;DHT22;16889;67.864;24.990;2022-09-09T19:06:08;8.50;99.90
30063;DHT22;16889;67.864;24.990;2022-09-09T19:10:54;8.40;99.90
30063;DHT22;16889;67.864;24.990;2022-09-09T19:15:41;8.40;99.90
30063;DHT22;16889;67.864;24.990;2022-09-09T19:20:27;8.30;99.90
30063;DHT22;16889;67.864;24.990;2022-09-09T19:25:13;8.10;99.90
30063;DHT22;16889;67.864;24.990;2022-09-09T19:29:59;8.20;99.90
30063;DHT22;16889;67.864;24.990;2022-09-09T19:34:45;8.20;99.90
30063;DHT22;16889;67.864;24.990;2022-09-09T19:39:31;8.10;99.90
30063;DHT22;16889;67.864;24.990;2022-09-09T19:44:18;8.00;99.90
30063;DHT22;16889;67.864;24.990;2022-09-09T19:49:05;8.00;99.90
30063;DHT22;16889;67.864;24.990;2022-09-09T19:53:53;8.00;99.90
30063;DHT22;16889;67.864;24.990;2022-09-09T19:58:45;7.90;99.90
30063;DHT22;16889;67.864;24.990;2022-09-09T20:03:32;7.70;99.90
30063;DHT22;16889;67.864;24.990;2022-09-09T20:08:19;7.60;99.90
30063;DHT22;16889;67.864;24.990;2022-09-09T20:13:05;7.40;99.90
30063;DHT22;16889;67.864;24.990;2022-09-09T20:17:51;7.40;99.90
30063;DHT22;16889;67.864;24.990;2022-09-09T20:22:37;7.40;99.90
30063;DHT22;16889;67.864;24.990;2022-09-09T20:27:23;7.40;99.90
30063;DHT22;16889;67.864;24.990;2022-09-09T20:32:09;7.40;99.90
30063;DHT22;16889;67.864;24.990;2022-09-09T20:36:56;7.20;99.90
30063;DHT22;16889;67.864;24.990;2022-09-09T20:41:44;7.10;99.90
30063;DHT22;16889;67.864;24.990;2022-09-09T20:46:33;7.00;99.90
30063;DHT22;16889;67.864;24.990;2022-09-09T20:51:22;7.00;99.90
30063;DHT22;16889;67.864;24.990;2022-09-09T20:56:09;7.00;99.90
30063;DHT22;16889;67.864;24.990;2022-09-09T21:00:57;6.90;99.90
30063;DHT22;16889;67.864;24.990;2022-09-09T21:05:44;7.00;99.90
30063;DHT22;16889;67.864;24.990;2022-09-09T21:10:32;7.10;99.90
30063;DHT22;16889;67.864;24.990;2022-09-09T21:15:18;7.00;99.90
30063;DHT22;16889;67.864;24.990;2022-09-09T21:20:04;6.90;99.90
30063;DHT22;16889;67.864;24.990;2022-09-09T21:24:51;6.90;99.90
30063;DHT22;16889;67.864;24.990;2022-09-09T21:29:37;6.90;99.90
30063;DHT22;16889;67.864;24.990;2022-09-09T21:34:23;6.70;99.90
30063;DHT22;16889;67.864;24.990;2022-09-09T21:39:09;6.60;99.90
30063;DHT22;16889;67.864;24.990;2022-09-09T21:43:55;6.60;99.90
30063;DHT22;16889;67.864;24.990;2022-09-09T21:48:41;6.70;99.90
30063;DHT22;16889;67.864;24.990;2022-09-09T21:53:27;6.60;99.90
30063;DHT22;16889;67.864;24.990;2022-09-09T21:58:15;6.40;99.90
30063;DHT22;16889;67.864;24.990;2022-09-09T22:03:02;6.30;99.90
30063;DHT22;16889;67.864;24.990;2022-09-09T22:07:48;6.30;99.90
30063;DHT22;16889;67.864;24.990;2022-09-09T22:12:34;6.10;99.90
30063;DHT22;16889;67.864;24.990;2022-09-09T22:17:21;6.00;99.90
30063;DHT22;16889;67.864;24.990;2022-09-09T22:22:08;5.90;99.90
30063;DHT22;16889;67.864;24.990;2022-09-09T22:26:54;5.90;99.90
30063;DHT22;16889;67.864;24.990;2022-09-09T22:31:40;5.70;99.90
30063;DHT22;16889;67.864;24.990;2022-09-09T22:36:27;5.50;99.90
30063;DHT22;16889;67.864;24.990;2022-09-09T22:41:13;5.40;99.90
30063;DHT22;16889;67.864;24.990;2022-09-09T22:46:01;5.30;99.90
30063;DHT22;16889;67.864;24.990;2022-09-09T22:50:47;5.30;99.90
30063;DHT22;16889;67.864;24.990;2022-09-09T22:55:33;5.00;99.90
30063;DHT22;16889;67.864;24.990;2022-09-09T23:00:19;4.70;99.90
30063;DHT22;16889;67.864;24.990;2022-09-09T23:05:05;4.60;99.90
30063;DHT22;16889;67.864;24.990;2022-09-09T23:09:54;4.60;99.90
30063;DHT22;16889;67.864;24.990;2022-09-09T23:14:40;4.50;99.90
30063;DHT22;16889;67.864;24.990;2022-09-09T23:19:26;4.50;99.90
30063;DHT22;16889;67.864;24.990;2022-09-09T23:24:15;4.40;99.90
30063;DHT22;16889;67.864;24.990;2022-09-09T23:29:01;4.30;99.90
30063;DHT22;16889;67.864;24.990;2022-09-09T23:33:47;4.10;99.90
30063;DHT22;16889;67.864;24.990;2022-09-09T23:38:35;3.90;99.90
30063;DHT22;16889;67.864;24.990;2022-09-09T23:43:23;3.70;99.90
30063;DHT22;16889;67.864;24.990;2022-09-09T23:48:10;3.50;99.90
30063;DHT22;16889;67.864;24.990;2022-09-09T23:52:55;3.40;99.90
30063;DHT22;16889;67.864;24.990;2022-09-09T23:57:42;3.30;99.90
